Time;durP1;ratioP1;P1;durP2;ratioP2;P2;SDS_P1;SDS_P2;PMS_P1;PMS_P2;Temp;Humidity;BMP_temperature;BMP_pressure;BME280_temperature;BME280_humidity;BME280_pressure;Samples;Min_cycle;Max_cycle;Signal;HPM_P1;HPM_P2
2022/12/26 00:00:10;;;;;;;12.07;8.03;;;;;;;;;;4915635;29;20225;-84
2022/12/26 00:02:36;;;;;;;11.43;8.40;;;;;;;;;;4899743;29;20243;-84
2022/12/26 00:05:02;;;;;;;10.63;8.10;;;;;;;;;;4888096;29;20228;-87
2022/12/26 00:07:32;;;;;;;10.70;8.07;;;;;;;;;;4886264;29;20289;-87
2022/12/26 00:09:58;;;;;;;12.93;8.87;;;;;;;;;;4887429;29;20232;-86
2022/12/26 00:12:27;;;;;;;14.90;9.10;;;;;;;;;;4871219;29;20234;-87
2022/12/26 00:14:52;;;;;;;13.80;8.87;;;;;;;;;;4871314;29;20305;-86
2022/12/26 00:17:18;;;;;;;12.67;8.50;;;;;;;;;;4891745;29;20672;-86
2022/12/26 00:19:43;;;;;;;11.47;8.07;;;;;;;;;;4866608;29;20222;-87
2022/12/26 00:22:14;;;;;;;13.97;8.87;;;;;;;;;;4863684;29;20619;-86
2022/12/26 00:24:45;;;;;;;13.13;9.40;;;;;;;;;;4884282;29;20240;-87
2022/12/26 00:27:13;;;;;;;16.73;9.40;;;;;;;;;;4875981;29;20232;-86
2022/12/26 00:29:40;;;;;;;13.77;9.17;;;;;;;;;;4884876;29;20245;-85
2022/12/26 00:32:06;;;;;;;16.57;9.83;;;;;;;;;;4893474;29;20719;-86
2022/12/26 00:34:32;;;;;;;17.13;9.30;;;;;;;;;;4907343;29;20217;-85
2022/12/26 00:36:57;;;;;;;16.93;9.83;;;;;;;;;;4903623;29;20474;-85
2022/12/26 00:39:24;;;;;;;17.17;9.60;;;;;;;;;;4902920;29;20224;-85
2022/12/26 00:41:52;;;;;;;17.93;10.37;;;;;;;;;;4905542;29;20238;-85
2022/12/26 00:44:20;;;;;;;13.23;9.33;;;;;;;;;;4902768;29;20228;-86
2022/12/26 00:46:46;;;;;;;16.40;9.70;;;;;;;;;;4905365;29;20279;-86
2022/12/26 00:49:11;;;;;;;17.87;10.07;;;;;;;;;;4893478;29;20276;-86
2022/12/26 00:51:37;;;;;;;17.73;8.90;;;;;;;;;;4876165;29;20236;-87
2022/12/26 00:54:03;;;;;;;19.00;9.80;;;;;;;;;;4894901;29;20209;-85
2022/12/26 00:56:31;;;;;;;15.90;9.83;;;;;;;;;;4891064;29;20270;-86
2022/12/26 00:58:56;;;;;;;18.40;9.83;;;;;;;;;;4870781;29;21229;-87
2022/12/26 01:01:24;;;;;;;18.67;10.47;;;;;;;;;;4883296;29;20238;-86
2022/12/26 01:03:50;;;;;;;20.40;10.83;;;;;;;;;;4863902;29;20233;-86
2022/12/26 01:06:16;;;;;;;20.57;10.43;;;;;;;;;;4872099;29;20310;-86
2022/12/26 01:08:43;;;;;;;20.10;10.40;;;;;;;;;;4874818;29;20248;-86
2022/12/26 01:11:10;;;;;;;17.47;9.87;;;;;;;;;;4864649;29;20229;-87
2022/12/26 01:13:38;;;;;;;17.90;10.80;;;;;;;;;;4876670;29;20233;-87
2022/12/26 01:16:08;;;;;;;23.43;10.13;;;;;;;;;;4880131;29;20228;-87
2022/12/26 01:18:37;;;;;;;19.47;10.63;;;;;;;;;;4879428;29;20232;-86
2022/12/26 01:21:05;;;;;;;22.87;11.67;;;;;;;;;;4885529;29;20228;-85
2022/12/26 01:23:33;;;;;;;19.07;11.33;;;;;;;;;;4891902;29;20295;-86
2022/12/26 01:25:59;;;;;;;21.63;10.70;;;;;;;;;;4890133;29;20228;-86
2022/12/26 01:28:29;;;;;;;25.00;11.17;;;;;;;;;;4864686;29;20231;-85
2022/12/26 01:30:57;;;;;;;28.17;10.77;;;;;;;;;;4905278;29;20228;-87
2022/12/26 01:33:25;;;;;;;22.63;11.20;;;;;;;;;;4888479;29;20237;-83
2022/12/26 01:35:55;;;;;;;23.67;11.80;;;;;;;;;;4889094;29;20235;-86
2022/12/26 01:38:20;;;;;;;21.97;11.30;;;;;;;;;;4907292;29;20639;-86
2022/12/26 01:40:46;;;;;;;26.57;11.40;;;;;;;;;;4896166;29;20281;-85
2022/12/26 01:43:12;;;;;;;23.77;11.43;;;;;;;;;;4895861;29;20255;-86
2022/12/26 01:45:40;;;;;;;19.90;10.87;;;;;;;;;;4872630;29;20232;-87
2022/12/26 01:48:19;;;;;;;28.93;12.03;;;;;;;;;;4876304;29;20226;-86
2022/12/26 01:50:50;;;;;;;31.17;12.17;;;;;;;;;;4885867;29;20256;-87
2022/12/26 01:53:20;;;;;;;33.10;11.87;;;;;;;;;;4891227;29;20228;-85
2022/12/26 01:55:48;;;;;;;28.37;11.93;;;;;;;;;;4890223;29;20235;-86
2022/12/26 01:58:18;;;;;;;24.60;11.10;;;;;;;;;;4874566;29;20268;-85
2022/12/26 02:00:44;;;;;;;28.63;11.37;;;;;;;;;;4878269;29;20229;-86
2022/12/26 02:05:54;;;;;;;24.87;11.00;;;;;;;;;;4896567;29;20239;-87
2022/12/26 02:08:26;;;;;;;22.07;10.83;;;;;;;;;;4873988;29;20226;-85
2022/12/26 02:11:06;;;;;;;24.30;11.63;;;;;;;;;;4867596;29;20230;-86
2022/12/26 02:13:35;;;;;;;22.10;10.93;;;;;;;;;;4900405;29;20232;-84
2022/12/26 02:16:05;;;;;;;22.10;11.30;;;;;;;;;;4874797;29;20220;-87
2022/12/26 02:18:33;;;;;;;19.17;11.07;;;;;;;;;;4888601;29;20708;-84
2022/12/26 02:21:31;;;;;;;26.00;11.47;;;;;;;;;;4892647;29;20613;-84
2022/12/26 02:24:01;;;;;;;21.23;10.83;;;;;;;;;;4869150;29;20676;-86
2022/12/26 02:26:38;;;;;;;20.03;11.37;;;;;;;;;;4899850;29;20224;-85
2022/12/26 02:29:25;;;;;;;20.70;10.93;;;;;;;;;;4886650;29;20225;-84
2022/12/26 02:31:58;;;;;;;21.40;10.77;;;;;;;;;;4881161;29;20351;-83
2022/12/26 02:34:41;;;;;;;16.73;10.07;;;;;;;;;;4894002;29;20750;-85
2022/12/26 02:37:35;;;;;;;15.87;9.67;;;;;;;;;;4872801;29;20220;-86
2022/12/26 02:40:22;;;;;;;17.00;9.33;;;;;;;;;;4904913;29;20330;-86
2022/12/26 02:42:58;;;;;;;18.53;9.87;;;;;;;;;;4901712;29;20232;-86
2022/12/26 02:48:27;;;;;;;15.30;9.33;;;;;;;;;;4880837;29;20259;-86
2022/12/26 03:15:05;;;;;;;14.77;9.13;;;;;;;;;;4836481;29;20230;-86
2022/12/26 03:17:44;;;;;;;13.00;8.97;;;;;;;;;;4856391;29;20878;-87
2022/12/26 03:20:37;;;;;;;13.43;9.00;;;;;;;;;;4890838;29;20230;-85
2022/12/26 03:23:12;;;;;;;14.10;8.97;;;;;;;;;;4888706;29;20217;-85
2022/12/26 03:28:23;;;;;;;16.53;9.17;;;;;;;;;;4911910;29;20247;-88
2022/12/26 03:30:49;;;;;;;11.67;8.37;;;;;;;;;;4886086;29;20229;-86
2022/12/26 03:36:08;;;;;;;12.93;7.87;;;;;;;;;;4915118;29;20237;-85
2022/12/26 03:38:56;;;;;;;13.17;8.47;;;;;;;;;;4883716;29;20257;-86
2022/12/26 04:20:15;;;;;;;11.33;8.50;;;;;;;;;;4900465;29;20264;-84
2022/12/26 04:45:23;;;;;;;16.67;11.27;;;;;;;;;;4892025;28;20243;-87
2022/12/26 04:50:50;;;;;;;13.90;10.60;;;;;;;;;;4876227;29;20226;-87
2022/12/26 04:53:16;;;;;;;15.73;10.23;;;;;;;;;;4882370;29;20224;-86
2022/12/26 04:55:44;;;;;;;15.23;9.50;;;;;;;;;;4891586;29;20252;-85
2022/12/26 04:58:12;;;;;;;14.17;9.73;;;;;;;;;;4887915;29;20232;-86
2022/12/26 05:00:37;;;;;;;14.03;10.70;;;;;;;;;;4891990;29;20656;-86
2022/12/26 05:11:24;;;;;;;16.70;12.67;;;;;;;;;;4890432;29;20718;-85
2022/12/26 05:13:54;;;;;;;19.27;13.33;;;;;;;;;;4892294;29;20220;-86
2022/12/26 05:30:05;;;;;;;22.23;17.57;;;;;;;;;;4893063;29;20224;-85
2022/12/26 05:35:17;;;;;;;23.30;18.30;;;;;;;;;;4864902;29;20711;-87
2022/12/26 05:37:46;;;;;;;23.03;18.50;;;;;;;;;;4870302;29;20232;-87
2022/12/26 05:40:11;;;;;;;24.87;19.33;;;;;;;;;;4868459;29;20234;-86
2022/12/26 05:42:39;;;;;;;22.10;18.60;;;;;;;;;;4867976;29;20229;-85
2022/12/26 05:45:08;;;;;;;19.83;17.73;;;;;;;;;;4888557;29;20243;-85
2022/12/26 05:47:35;;;;;;;21.13;18.07;;;;;;;;;;4865741;29;20221;-86
2022/12/26 05:50:01;;;;;;;24.93;18.67;;;;;;;;;;4863389;29;20799;-84
2022/12/26 05:52:29;;;;;;;23.37;19.30;;;;;;;;;;4866736;29;20228;-86
2022/12/26 05:54:59;;;;;;;22.87;19.40;;;;;;;;;;4878009;29;20225;-87
2022/12/26 05:57:27;;;;;;;22.40;18.00;;;;;;;;;;4857620;29;20229;-85
2022/12/26 05:59:59;;;;;;;24.27;19.33;;;;;;;;;;4888921;29;20228;-86
2022/12/26 06:02:28;;;;;;;21.50;18.43;;;;;;;;;;4875928;29;20260;-85
2022/12/26 06:04:56;;;;;;;22.00;18.80;;;;;;;;;;4870137;29;20383;-87
2022/12/26 06:07:21;;;;;;;22.90;20.47;;;;;;;;;;4891928;29;20232;-86
2022/12/26 06:09:49;;;;;;;22.93;18.93;;;;;;;;;;4886046;29;20228;-85
2022/12/26 06:12:15;;;;;;;21.17;18.33;;;;;;;;;;4871009;29;20232;-83
2022/12/26 06:14:43;;;;;;;18.93;16.90;;;;;;;;;;4878838;29;20244;-87
2022/12/26 06:17:13;;;;;;;21.63;18.77;;;;;;;;;;4880033;29;20231;-84
2022/12/26 06:19:39;;;;;;;22.13;18.20;;;;;;;;;;4866460;29;20224;-86
2022/12/26 06:22:09;;;;;;;21.83;18.57;;;;;;;;;;4865848;29;20479;-87
2022/12/26 06:24:35;;;;;;;20.60;17.43;;;;;;;;;;4883899;29;20746;-85
2022/12/26 06:27:01;;;;;;;21.53;17.83;;;;;;;;;;4864634;29;20233;-83
2022/12/26 06:29:26;;;;;;;19.87;16.87;;;;;;;;;;4884216;29;20674;-87
2022/12/26 06:31:56;;;;;;;21.23;17.83;;;;;;;;;;4864312;29;20232;-85
2022/12/26 06:34:24;;;;;;;19.27;17.00;;;;;;;;;;4884188;29;20244;-86
2022/12/26 06:36:49;;;;;;;20.83;18.63;;;;;;;;;;4887777;29;20237;-84
2022/12/26 06:39:18;;;;;;;21.93;18.63;;;;;;;;;;4883299;29;20247;-85
2022/12/26 06:41:43;;;;;;;21.50;19.20;;;;;;;;;;4875552;29;20243;-83
2022/12/26 06:44:13;;;;;;;24.67;18.93;;;;;;;;;;4889409;29;20728;-83
2022/12/26 06:46:39;;;;;;;21.70;18.97;;;;;;;;;;4867106;29;20603;-87
2022/12/26 06:49:10;;;;;;;21.67;18.80;;;;;;;;;;4877254;29;20232;-83
2022/12/26 06:51:35;;;;;;;22.07;19.23;;;;;;;;;;4875822;29;20237;-86
2022/12/26 06:54:03;;;;;;;20.73;17.87;;;;;;;;;;4900283;29;20635;-85
2022/12/26 06:56:31;;;;;;;18.97;17.03;;;;;;;;;;4891400;29;20231;-88
2022/12/26 06:58:58;;;;;;;19.97;17.73;;;;;;;;;;4870258;29;20252;-84
2022/12/26 07:01:24;;;;;;;19.67;16.40;;;;;;;;;;4887291;29;20709;-85
2022/12/26 07:03:52;;;;;;;19.20;17.20;;;;;;;;;;4880015;29;20721;-84
2022/12/26 07:06:34;;;;;;;19.63;17.63;;;;;;;;;;4887818;29;20244;-82
2022/12/26 07:09:05;;;;;;;19.90;17.83;;;;;;;;;;4871481;29;20233;-84
2022/12/26 07:11:32;;;;;;;19.67;17.53;;;;;;;;;;4878379;29;20232;-88
2022/12/26 07:13:58;;;;;;;19.97;17.87;;;;;;;;;;4873999;29;20221;-82
2022/12/26 07:16:25;;;;;;;22.70;18.87;;;;;;;;;;4883029;29;20530;-85
2022/12/26 07:18:57;;;;;;;19.90;17.97;;;;;;;;;;4884212;29;20240;-82
2022/12/26 07:21:26;;;;;;;22.03;19.27;;;;;;;;;;4891233;29;20275;-85
2022/12/26 07:23:52;;;;;;;20.83;18.63;;;;;;;;;;4894281;29;20284;-81
2022/12/26 07:26:18;;;;;;;22.73;18.80;;;;;;;;;;4877979;29;20231;-85
2022/12/26 07:28:43;;;;;;;20.80;18.70;;;;;;;;;;4859320;29;20224;-85
2022/12/26 07:31:16;;;;;;;20.93;18.20;;;;;;;;;;4865977;29;20220;-83
2022/12/26 07:33:44;;;;;;;21.93;19.50;;;;;;;;;;4870219;29;20248;-84
2022/12/26 07:36:12;;;;;;;22.53;20.03;;;;;;;;;;4890082;29;20659;-85
2022/12/26 07:38:40;;;;;;;21.97;18.13;;;;;;;;;;4879514;29;20235;-83
2022/12/26 07:43:50;;;;;;;20.63;17.80;;;;;;;;;;4874170;29;20232;-84
2022/12/26 07:46:16;;;;;;;20.70;18.43;;;;;;;;;;4867217;29;20280;-84
2022/12/26 07:48:41;;;;;;;22.07;19.33;;;;;;;;;;4887142;29;20228;-85
2022/12/26 07:51:10;;;;;;;20.50;18.37;;;;;;;;;;4883422;29;20229;-85
2022/12/26 07:53:40;;;;;;;20.50;18.37;;;;;;;;;;4887518;29;20229;-85
2022/12/26 07:56:08;;;;;;;20.30;18.03;;;;;;;;;;4882285;29;20575;-82
2022/12/26 07:58:34;;;;;;;18.93;16.63;;;;;;;;;;4890363;29;20243;-85
2022/12/26 08:01:05;;;;;;;19.70;17.60;;;;;;;;;;4873280;29;20243;-84
2022/12/26 08:03:32;;;;;;;18.13;16.17;;;;;;;;;;4868359;29;20248;-85
2022/12/26 08:06:00;;;;;;;17.87;15.97;;;;;;;;;;4874560;29;20240;-84
2022/12/26 08:08:27;;;;;;;19.73;16.67;;;;;;;;;;4885656;29;21431;-84
2022/12/26 08:11:05;;;;;;;20.83;16.80;;;;;;;;;;4879633;29;20236;-85
2022/12/26 08:13:33;;;;;;;18.07;16.17;;;;;;;;;;4890802;29;20224;-86
2022/12/26 08:16:05;;;;;;;20.03;17.43;;;;;;;;;;4902199;28;20209;-83
2022/12/26 08:18:32;;;;;;;20.00;17.60;;;;;;;;;;4893277;28;20299;-82
2022/12/26 08:21:00;;;;;;;20.63;17.73;;;;;;;;;;4888257;28;20221;-81
2022/12/26 08:23:25;;;;;;;22.40;18.53;;;;;;;;;;4873754;29;20221;-83
2022/12/26 08:25:53;;;;;;;20.70;18.60;;;;;;;;;;4911437;28;20304;-83
2022/12/26 08:28:19;;;;;;;24.57;19.50;;;;;;;;;;4898638;29;20209;-83
2022/12/26 08:30:45;;;;;;;19.40;17.30;;;;;;;;;;4893878;29;20225;-82
2022/12/26 08:33:11;;;;;;;21.13;18.63;;;;;;;;;;4903787;29;20256;-82
2022/12/26 08:35:39;;;;;;;19.70;17.63;;;;;;;;;;4906245;29;20219;-81
2022/12/26 08:38:05;;;;;;;21.13;18.83;;;;;;;;;;4899468;28;20228;-82
2022/12/26 08:40:30;;;;;;;23.57;19.00;;;;;;;;;;4905314;29;20272;-85
2022/12/26 08:42:56;;;;;;;21.20;18.83;;;;;;;;;;4891373;29;20280;-84
2022/12/26 08:45:22;;;;;;;19.90;17.87;;;;;;;;;;4888439;29;20220;-83
2022/12/26 08:47:48;;;;;;;25.27;22.57;;;;;;;;;;4873443;29;20228;-86
2022/12/26 08:50:19;;;;;;;21.87;18.60;;;;;;;;;;4893658;29;20225;-83
2022/12/26 08:52:44;;;;;;;19.90;17.27;;;;;;;;;;4888548;29;20290;-86
2022/12/26 08:55:10;;;;;;;20.90;16.20;;;;;;;;;;4894842;29;20220;-87
2022/12/26 08:57:35;;;;;;;19.97;17.57;;;;;;;;;;4878831;29;20235;-87
2022/12/26 09:00:04;;;;;;;19.43;15.97;;;;;;;;;;4878878;29;20250;-85
2022/12/26 09:02:32;;;;;;;17.70;15.13;;;;;;;;;;4877421;29;20257;-83
2022/12/26 09:04:58;;;;;;;17.83;15.80;;;;;;;;;;4878840;29;20320;-82
2022/12/26 09:07:25;;;;;;;17.03;15.17;;;;;;;;;;4891978;29;20224;-84
2022/12/26 09:09:51;;;;;;;18.83;16.83;;;;;;;;;;4892964;29;20231;-80
2022/12/26 09:12:16;;;;;;;18.33;16.43;;;;;;;;;;4911717;29;20596;-84
2022/12/26 09:14:46;;;;;;;17.57;15.77;;;;;;;;;;4889912;29;20284;-83
2022/12/26 09:17:12;;;;;;;20.50;16.83;;;;;;;;;;4871763;29;20232;-84
2022/12/26 09:19:38;;;;;;;17.70;15.80;;;;;;;;;;4884206;29;20252;-82
2022/12/26 09:24:50;;;;;;;21.07;15.83;;;;;;;;;;4887270;29;20225;-82
2022/12/26 09:27:16;;;;;;;17.70;15.60;;;;;;;;;;4889290;29;20609;-83
2022/12/26 09:29:44;;;;;;;17.23;15.40;;;;;;;;;;4885355;29;20723;-81
2022/12/26 09:32:09;;;;;;;19.07;15.57;;;;;;;;;;4886760;29;20289;-83
2022/12/26 09:34:35;;;;;;;18.63;15.17;;;;;;;;;;4894417;29;20710;-83
2022/12/26 09:37:00;;;;;;;17.50;15.13;;;;;;;;;;4855950;29;20225;-84
2022/12/26 09:39:33;;;;;;;17.03;15.17;;;;;;;;;;4886064;29;20236;-87
2022/12/26 09:42:37;;;;;;;16.67;14.97;;;;;;;;;;4872430;29;20229;-85
2022/12/26 09:45:15;;;;;;;18.97;16.77;;;;;;;;;;4898031;29;20243;-84
2022/12/26 09:47:49;;;;;;;16.20;14.23;;;;;;;;;;4904301;29;20240;-85
2022/12/26 09:50:35;;;;;;;16.93;15.13;;;;;;;;;;4898920;29;20247;-82
2022/12/26 09:53:05;;;;;;;17.17;15.17;;;;;;;;;;4891351;29;20258;-82
2022/12/26 09:55:46;;;;;;;17.37;15.47;;;;;;;;;;4884353;29;20279;-83
2022/12/26 09:58:20;;;;;;;16.60;14.73;;;;;;;;;;4892175;29;20229;-85
2022/12/26 10:01:19;;;;;;;17.17;15.37;;;;;;;;;;4905075;29;20228;-84
2022/12/26 10:03:49;;;;;;;14.83;13.37;;;;;;;;;;4881006;29;20248;-84
2022/12/26 10:06:21;;;;;;;16.43;14.73;;;;;;;;;;4882665;29;20232;-81
2022/12/26 10:08:59;;;;;;;17.83;15.10;;;;;;;;;;4902786;29;20234;-80
2022/12/26 10:11:39;;;;;;;16.53;14.90;;;;;;;;;;4883287;29;20228;-83
2022/12/26 10:14:17;;;;;;;17.07;14.80;;;;;;;;;;4897560;29;20235;-85
2022/12/26 10:16:54;;;;;;;15.80;14.20;;;;;;;;;;4854671;29;20217;-83
2022/12/26 10:19:25;;;;;;;16.47;14.80;;;;;;;;;;4895925;29;20256;-85
2022/12/26 10:22:15;;;;;;;15.50;13.93;;;;;;;;;;4903456;29;20722;-80
2022/12/26 10:24:42;;;;;;;16.17;14.53;;;;;;;;;;4897426;29;20229;-80
2022/12/26 10:27:17;;;;;;;15.73;14.13;;;;;;;;;;4890311;29;20209;-84
2022/12/26 10:30:00;;;;;;;15.10;13.63;;;;;;;;;;4882709;29;20279;-85
2022/12/26 10:32:35;;;;;;;15.70;12.67;;;;;;;;;;4855362;29;20226;-81
2022/12/26 10:35:23;;;;;;;12.27;11.13;;;;;;;;;;4899323;29;20231;-82
2022/12/26 10:37:50;;;;;;;12.60;11.30;;;;;;;;;;4900802;29;20232;-81
2022/12/26 10:40:35;;;;;;;13.27;11.97;;;;;;;;;;4894719;29;20230;-81
2022/12/26 10:43:23;;;;;;;12.70;11.50;;;;;;;;;;4889922;29;20255;-81
2022/12/26 10:45:59;;;;;;;12.73;11.53;;;;;;;;;;4878344;29;20227;-85
2022/12/26 10:48:26;;;;;;;12.47;11.27;;;;;;;;;;4884916;29;20225;-82
2022/12/26 10:50:52;;;;;;;12.33;11.10;;;;;;;;;;4884921;29;20813;-85
2022/12/26 10:53:18;;;;;;;12.07;10.87;;;;;;;;;;4880101;29;20233;-82
2022/12/26 10:55:43;;;;;;;11.43;9.80;;;;;;;;;;4867968;29;20221;-85
2022/12/26 10:58:27;;;;;;;11.13;10.13;;;;;;;;;;4886786;29;20229;-83
2022/12/26 11:00:53;;;;;;;12.10;10.87;;;;;;;;;;4886599;29;20294;-83
2022/12/26 11:03:19;;;;;;;12.13;10.93;;;;;;;;;;4879478;29;20637;-84
2022/12/26 11:05:49;;;;;;;21.30;18.23;;;;;;;;;;4873722;29;20218;-84
2022/12/26 11:08:22;;;;;;;9.33;8.53;;;;;;;;;;4875318;29;20233;-83
2022/12/26 11:11:24;;;;;;;9.63;8.60;;;;;;;;;;4883390;29;20718;-84
2022/12/26 11:13:58;;;;;;;9.37;8.47;;;;;;;;;;4864676;29;20224;-83
2022/12/26 11:16:30;;;;;;;7.83;7.03;;;;;;;;;;4883029;29;20256;-86
2022/12/26 11:19:00;;;;;;;8.17;7.37;;;;;;;;;;4885295;29;20229;-85
2022/12/26 11:21:30;;;;;;;7.97;7.27;;;;;;;;;;4865473;29;20247;-84
2022/12/26 11:24:08;;;;;;;7.40;6.70;;;;;;;;;;4880842;29;20315;-82
2022/12/26 11:26:36;;;;;;;7.07;6.40;;;;;;;;;;4904517;29;20224;-83
2022/12/26 11:29:12;;;;;;;7.23;6.27;;;;;;;;;;4885597;29;20299;-84
2022/12/26 11:31:53;;;;;;;5.93;5.43;;;;;;;;;;4892469;29;20224;-82
2022/12/26 11:34:44;;;;;;;6.00;5.50;;;;;;;;;;4885390;29;20274;-83
2022/12/26 11:37:24;;;;;;;6.90;5.90;;;;;;;;;;4887111;29;20232;-82
2022/12/26 11:39:52;;;;;;;6.30;5.67;;;;;;;;;;4905168;29;20236;-81
2022/12/26 11:42:19;;;;;;;5.67;5.10;;;;;;;;;;4887482;29;20233;-83
2022/12/26 11:44:48;;;;;;;5.47;4.97;;;;;;;;;;4886713;29;20485;-82
2022/12/26 11:47:15;;;;;;;4.53;4.13;;;;;;;;;;4871983;29;20250;-83
2022/12/26 11:49:47;;;;;;;5.97;5.37;;;;;;;;;;4888579;29;20253;-83
2022/12/26 11:52:40;;;;;;;6.13;4.80;;;;;;;;;;4894408;29;20231;-82
2022/12/26 11:55:32;;;;;;;5.43;4.30;;;;;;;;;;4901385;29;20231;-82
2022/12/26 11:58:08;;;;;;;5.53;4.57;;;;;;;;;;4898454;29;20307;-85
2022/12/26 12:00:33;;;;;;;7.93;4.60;;;;;;;;;;4901279;29;20228;-86
2022/12/26 12:02:59;;;;;;;5.40;4.87;;;;;;;;;;4907685;29;20238;-82
2022/12/26 12:05:27;;;;;;;4.70;4.30;;;;;;;;;;4889843;29;20711;-83
2022/12/26 12:08:15;;;;;;;4.73;4.10;;;;;;;;;;4902283;29;20263;-83
2022/12/26 12:11:15;;;;;;;3.90;3.50;;;;;;;;;;4896588;29;20234;-83
2022/12/26 12:13:48;;;;;;;3.50;3.30;;;;;;;;;;4880974;29;20272;-83
2022/12/26 12:16:48;;;;;;;4.40;4.00;;;;;;;;;;4897782;29;20217;-82
2022/12/26 12:19:31;;;;;;;4.07;3.77;;;;;;;;;;4898870;29;20232;-85
2022/12/26 12:22:32;;;;;;;4.17;3.50;;;;;;;;;;4882315;29;20240;-85
2022/12/26 12:25:50;;;;;;;4.07;3.43;;;;;;;;;;4890773;29;20237;-83
2022/12/26 12:28:18;;;;;;;6.00;3.00;;;;;;;;;;4863697;29;20257;-83
2022/12/26 12:31:08;;;;;;;3.50;3.00;;;;;;;;;;4891495;29;20225;-83
2022/12/26 12:33:48;;;;;;;2.87;2.57;;;;;;;;;;4904672;29;20228;-82
2022/12/26 12:36:21;;;;;;;2.60;2.40;;;;;;;;;;4906288;29;20288;-81
2022/12/26 12:39:23;;;;;;;3.10;2.60;;;;;;;;;;4883495;29;20232;-82
2022/12/26 12:42:13;;;;;;;3.87;3.47;;;;;;;;;;4914017;29;20229;-81
2022/12/26 12:45:17;;;;;;;3.03;2.63;;;;;;;;;;4897888;29;20305;-79
2022/12/26 12:47:47;;;;;;;3.80;3.40;;;;;;;;;;4906416;29;20786;-84
2022/12/26 12:50:33;;;;;;;3.30;2.60;;;;;;;;;;4871419;29;20256;-82
2022/12/26 12:53:22;;;;;;;4.20;2.60;;;;;;;;;;4905424;29;20314;-81
2022/12/26 12:56:23;;;;;;;4.53;2.30;;;;;;;;;;4894872;29;20253;-83
2022/12/26 12:59:16;;;;;;;3.03;2.00;;;;;;;;;;4843617;29;20675;-82
2022/12/26 13:01:43;;;;;;;3.33;2.40;;;;;;;;;;4891131;29;20229;-84
2022/12/26 13:04:19;;;;;;;5.87;3.10;;;;;;;;;;4891719;29;20232;-82
2022/12/26 13:06:54;;;;;;;2.87;2.43;;;;;;;;;;4865220;29;20245;-82
2022/12/26 13:09:24;;;;;;;7.60;4.20;;;;;;;;;;4890150;29;20403;-81
2022/12/26 13:11:54;;;;;;;7.23;3.27;;;;;;;;;;4883836;29;20240;-81
2022/12/26 13:14:30;;;;;;;12.50;7.50;;;;;;;;;;4912740;29;20241;-80
2022/12/26 13:17:04;;;;;;;32.73;18.40;;;;;;;;;;4912651;29;20292;-80
2022/12/26 13:19:55;;;;;;;3.53;2.77;;;;;;;;;;4886131;29;20308;-81
2022/12/26 13:24:22;;;;;;;2.43;1.83;;;;;;;;;;4898534;29;20247;-80
2022/12/26 13:25:17;;;;;;;2.87;2.63;;;;;;;;;;4898855;29;20599;-84
2022/12/26 13:27:43;;;;;;;2.70;2.50;;;;;;;;;;4883987;29;20751;-83
2022/12/26 13:30:11;;;;;;;2.93;2.33;;;;;;;;;;4879510;29;20229;-82
2022/12/26 13:32:37;;;;;;;5.87;2.50;;;;;;;;;;4893943;29;20311;-83
2022/12/26 13:35:07;;;;;;;4.37;2.07;;;;;;;;;;4889860;29;20220;-81
2022/12/26 13:37:39;;;;;;;2.87;2.00;;;;;;;;;;4914204;29;20221;-81
2022/12/26 13:40:21;;;;;;;3.07;2.30;;;;;;;;;;4922652;29;20231;-82
2022/12/26 13:45:42;;;;;;;3.70;1.97;;;;;;;;;;4911675;29;20793;-80
2022/12/26 13:48:16;;;;;;;1.97;1.53;;;;;;;;;;4912077;29;20251;-79
2022/12/26 13:50:53;;;;;;;2.00;1.30;;;;;;;;;;4908181;29;20224;-81
2022/12/26 13:53:24;;;;;;;1.33;1.23;;;;;;;;;;4896267;29;20221;-82
2022/12/26 13:55:57;;;;;;;1.10;1.00;;;;;;;;;;4904627;29;20701;-82
2022/12/26 13:58:44;;;;;;;1.77;1.67;;;;;;;;;;4884036;29;20281;-82
2022/12/26 14:01:24;;;;;;;1.10;1.10;;;;;;;;;;4887113;29;20237;-81
2022/12/26 14:04:24;;;;;;;2.90;1.87;;;;;;;;;;4896219;29;20582;-80
2022/12/26 14:07:20;;;;;;;1.87;1.10;;;;;;;;;;4905177;29;20351;-83
2022/12/26 14:10:05;;;;;;;2.33;1.30;;;;;;;;;;4897090;29;20313;-84
2022/12/26 14:12:43;;;;;;;0.73;0.53;;;;;;;;;;4903135;29;20251;-83
2022/12/26 14:15:34;;;;;;;0.87;0.60;;;;;;;;;;4907085;29;20232;-82
2022/12/26 14:18:02;;;;;;;1.70;0.50;;;;;;;;;;4907853;29;20309;-82
2022/12/26 14:20:36;;;;;;;1.30;0.60;;;;;;;;;;4902701;29;20247;-81
2022/12/26 14:23:26;;;;;;;0.73;0.67;;;;;;;;;;4907680;29;20224;-81
2022/12/26 14:25:58;;;;;;;0.67;0.63;;;;;;;;;;4901291;29;20231;-83
2022/12/26 14:28:34;;;;;;;1.13;0.73;;;;;;;;;;4896448;29;20253;-82
2022/12/26 14:31:04;;;;;;;2.33;0.70;;;;;;;;;;4906674;29;20315;-83
2022/12/26 14:33:44;;;;;;;1.37;0.50;;;;;;;;;;4904633;29;20308;-81
2022/12/26 14:36:23;;;;;;;1.00;0.50;;;;;;;;;;4901782;29;20235;-82
2022/12/26 14:39:11;;;;;;;2.33;0.53;;;;;;;;;;4885120;29;20947;-83
2022/12/26 14:44:49;;;;;;;1.63;0.50;;;;;;;;;;4901842;29;20216;-85
2022/12/26 14:47:53;;;;;;;1.73;0.80;;;;;;;;;;4884450;29;20232;-83
2022/12/26 14:50:33;;;;;;;1.50;0.90;;;;;;;;;;4882829;29;20845;-83
2022/12/26 14:53:26;;;;;;;2.70;0.80;;;;;;;;;;4898938;29;20231;-84
2022/12/26 14:55:52;;;;;;;1.30;1.00;;;;;;;;;;4897174;29;20651;-82
2022/12/26 14:58:27;;;;;;;1.50;1.20;;;;;;;;;;4888012;29;20268;-82
2022/12/26 15:00:53;;;;;;;2.50;1.30;;;;;;;;;;4901815;29;20571;-83
2022/12/26 15:03:37;;;;;;;2.03;1.20;;;;;;;;;;4895381;29;20213;-81
2022/12/26 15:06:18;;;;;;;1.20;0.80;;;;;;;;;;4904533;29;20228;-80
2022/12/26 15:08:52;;;;;;;1.93;1.40;;;;;;;;;;4898331;29;20225;-81
2022/12/26 15:11:58;;;;;;;1.90;0.80;;;;;;;;;;4902377;29;20319;-80
2022/12/26 15:14:52;;;;;;;1.80;1.03;;;;;;;;;;4876017;29;20237;-80
2022/12/26 15:17:28;;;;;;;1.13;0.90;;;;;;;;;;4894039;29;20231;-82
2022/12/26 15:20:18;;;;;;;1.00;0.90;;;;;;;;;;4879168;29;20232;-83
2022/12/26 15:23:05;;;;;;;2.57;0.80;;;;;;;;;;4875422;29;20226;-81
2022/12/26 15:25:41;;;;;;;2.20;1.00;;;;;;;;;;4893216;29;20232;-81
2022/12/26 15:28:25;;;;;;;2.07;0.80;;;;;;;;;;4889840;29;20225;-86
2022/12/26 15:31:09;;;;;;;2.00;0.90;;;;;;;;;;4931497;28;20212;-85
2022/12/26 15:33:52;;;;;;;2.10;0.93;;;;;;;;;;4913006;29;20256;-85
2022/12/26 15:36:30;;;;;;;1.33;0.73;;;;;;;;;;4920086;29;20231;-85
2022/12/26 15:39:23;;;;;;;3.83;1.03;;;;;;;;;;4884051;29;20234;-87
2022/12/26 15:42:20;;;;;;;2.17;0.97;;;;;;;;;;4895692;29;20232;-86
2022/12/26 15:44:52;;;;;;;3.93;1.07;;;;;;;;;;4898716;29;20235;-83
2022/12/26 15:47:32;;;;;;;3.97;1.10;;;;;;;;;;4900698;29;20275;-86
2022/12/26 15:50:04;;;;;;;2.70;1.00;;;;;;;;;;4921065;29;20246;-86
2022/12/26 15:52:45;;;;;;;2.93;1.10;;;;;;;;;;4920249;29;20245;-87
2022/12/26 15:55:39;;;;;;;2.07;1.13;;;;;;;;;;4886073;29;20225;-89
2022/12/26 15:58:17;;;;;;;2.53;0.93;;;;;;;;;;4901167;29;20215;-85
2022/12/26 16:00:50;;;;;;;5.67;1.40;;;;;;;;;;4893250;29;20327;-85
2022/12/26 16:03:22;;;;;;;3.33;1.10;;;;;;;;;;4879952;29;20297;-87
2022/12/26 16:05:55;;;;;;;2.33;1.20;;;;;;;;;;4895644;29;20224;-86
2022/12/26 16:08:29;;;;;;;3.03;1.20;;;;;;;;;;4879285;29;20707;-83
2022/12/26 16:11:15;;;;;;;5.03;1.30;;;;;;;;;;4910343;29;20255;-86
2022/12/26 16:14:00;;;;;;;2.80;1.20;;;;;;;;;;4901638;29;20228;-86
2022/12/26 16:16:32;;;;;;;3.50;1.40;;;;;;;;;;4866701;29;20269;-84
2022/12/26 16:19:12;;;;;;;3.93;1.50;;;;;;;;;;4880823;29;20225;-84
2022/12/26 16:24:22;;;;;;;2.57;1.33;;;;;;;;;;4891785;29;20228;-87
2022/12/26 16:26:47;;;;;;;3.77;1.47;;;;;;;;;;4887424;29;20227;-84
2022/12/26 16:29:17;;;;;;;11.03;1.47;;;;;;;;;;4885453;29;20726;-86
2022/12/26 16:31:46;;;;;;;10.03;1.83;;;;;;;;;;4886368;29;20225;-86
2022/12/26 16:34:33;;;;;;;;;;;;;;;;;;;;;
2022/12/26 16:37:07;;;;;;;5.70;3.80;;;;;;;;;;4874987;29;20228;-85
2022/12/26 16:40:16;;;;;;;3.80;2.40;;;;;;;;;;4849644;29;20235;-86
2022/12/26 16:43:02;;;;;;;3.73;1.93;;;;;;;;;;4885449;29;20232;-87
2022/12/26 16:46:09;;;;;;;;;;;;;;;;;;;;;
2022/12/26 16:48:44;;;;;;;7.33;3.97;;;;;;;;;;4891438;29;20240;-85
2022/12/26 16:51:41;;;;;;;5.63;2.17;;;;;;;;;;4865674;29;20323;-85
2022/12/26 16:54:19;;;;;;;6.17;3.70;;;;;;;;;;4862260;29;20616;-85
2022/12/26 16:57:10;;;;;;;7.60;2.87;;;;;;;;;;4872960;29;20232;-85
2022/12/26 16:59:52;;;;;;;12.73;6.70;;;;;;;;;;4872558;29;20662;-85
2022/12/26 17:02:32;;;;;;;5.87;2.83;;;;;;;;;;4889823;29;20606;-87
2022/12/26 17:05:24;;;;;;;7.23;3.03;;;;;;;;;;4853972;29;20233;-85
2022/12/26 17:08:20;;;;;;;3.17;1.87;;;;;;;;;;4855053;29;20699;-87
2022/12/26 17:11:19;;;;;;;;;;;;;;;;;;;;;
2022/12/26 17:13:57;;;;;;;10.17;6.97;;;;;;;;;;4896262;29;20270;-84
2022/12/26 17:16:26;;;;;;;10.30;3.97;;;;;;;;;;4885086;29;20639;-87
2022/12/26 17:18:53;;;;;;;10.07;4.77;;;;;;;;;;4893801;29;20252;-86
2022/12/26 17:21:23;;;;;;;15.67;13.20;;;;;;;;;;4895195;29;20232;-85
2022/12/26 17:24:09;;;;;;;6.13;3.50;;;;;;;;;;4899701;29;20225;-85
2022/12/26 17:26:36;;;;;;;4.83;2.50;;;;;;;;;;4893810;29;20232;-86
2022/12/26 17:29:04;;;;;;;6.73;2.30;;;;;;;;;;4885248;29;20217;-86